Time;durP1;ratioP1;P1;durP2;ratioP2;P2;SDS_P1;SDS_P2;PMS_P1;PMS_P2;Temp;Humidity;BMP_temperature;BMP_pressure;BME280_temperature;BME280_humidity;BME280_pressure;Samples;Min_cycle;Max_cycle;Signal;HPM_P1;HPM_P2
2023/07/18 00:00:13;;;;;;;1.45;0.52;;;;;;;24.93;60.53;99887.37;4311378;33;20187;-96
2023/07/18 00:02:39;;;;;;;0.20;0.20;;;;;;;25.14;60.54;99887.31;4323461;33;20119;-96
2023/07/18 00:05:06;;;;;;;0.00;0.00;;;;;;;25.17;60.54;99884.34;4311063;33;20095;-96
2023/07/18 00:07:31;;;;;;;0.05;0.05;;;;;;;25.04;60.53;99886.44;4311377;33;20107;-96
2023/07/18 00:09:57;;;;;;;0.22;0.22;;;;;;;24.97;60.52;99882.62;4310989;33;20497;-96
2023/07/18 00:12:23;;;;;;;0.43;0.35;;;;;;;24.96;60.53;99891.59;4310960;33;20111;-96
2023/07/18 00:14:48;;;;;;;0.10;0.05;;;;;;;24.97;60.53;99896.78;4305766;33;183973;-96
2023/07/18 00:17:15;;;;;;;0.17;0.17;;;;;;;24.88;60.52;99894.94;4311222;33;20147;-96
2023/07/18 00:19:41;;;;;;;1.15;1.05;;;;;;;24.78;60.52;99900.22;4311231;33;20138;-96
2023/07/18 00:22:07;;;;;;;0.10;0.10;;;;;;;24.85;60.53;99894.37;4311449;33;20370;-96
2023/07/18 00:24:36;;;;;;;0.13;0.13;;;;;;;24.82;60.52;99891.97;4311519;33;20169;-96
2023/07/18 00:27:03;;;;;;;0.08;0.08;;;;;;;24.73;60.51;99883.81;4311811;33;20245;-96
2023/07/18 00:29:29;;;;;;;0.03;0.03;;;;;;;24.73;60.51;99885.66;4314173;33;20138;-96
2023/07/18 00:31:54;;;;;;;0.98;0.37;;;;;;;24.75;60.51;99876.53;4323589;33;20112;-96
2023/07/18 00:34:20;;;;;;;0.62;0.25;;;;;;;24.75;60.51;99889.84;4317693;33;20139;-96
2023/07/18 00:36:46;;;;;;;0.20;0.20;;;;;;;24.62;60.52;99880.44;4311420;33;20125;-96
2023/07/18 00:39:12;;;;;;;0.00;0.00;;;;;;;24.70;60.52;99884.09;4311276;33;20457;-96
2023/07/18 00:41:39;;;;;;;0.20;0.20;;;;;;;24.59;60.51;99878.03;4311267;33;20087;-96
2023/07/18 00:44:04;;;;;;;0.00;0.00;;;;;;;24.67;60.51;99878.22;4335210;33;20159;-96
2023/07/18 00:46:31;;;;;;;0.08;0.08;;;;;;;24.61;60.51;99881.41;4311122;33;20115;-96
2023/07/18 00:48:57;;;;;;;1.17;0.80;;;;;;;24.58;60.51;99879.84;4310918;33;20186;-96
2023/07/18 00:51:24;;;;;;;0.40;0.40;;;;;;;24.52;60.51;99880.38;4323430;33;20140;-96
2023/07/18 00:53:51;;;;;;;0.60;0.60;;;;;;;24.45;60.50;99873.94;4310931;33;20126;-96
2023/07/18 00:56:16;;;;;;;0.30;0.30;;;;;;;24.76;60.53;99880.03;4323143;33;20179;-96
2023/07/18 00:58:41;;;;;;;0.00;0.00;;;;;;;24.43;60.50;99883.88;4311000;33;20147;-96
2023/07/18 01:01:07;;;;;;;0.00;0.00;;;;;;;24.41;60.50;99881.34;4323239;33;20118;-96
2023/07/18 01:03:34;;;;;;;0.68;0.68;;;;;;;24.49;60.50;99878.00;4310776;33;20104;-96
2023/07/18 01:05:59;;;;;;;0.85;0.35;;;;;;;24.54;60.51;99886.41;4311013;33;20238;-96
2023/07/18 01:08:25;;;;;;;1.25;0.28;;;;;;;24.52;60.51;99884.88;4310802;33;20490;-96
2023/07/18 01:10:50;;;;;;;1.25;0.73;;;;;;;24.46;60.51;99884.44;4310957;33;20162;-96
2023/07/18 01:13:15;;;;;;;0.13;0.08;;;;;;;24.41;60.50;99886.66;4322753;33;20417;-96
2023/07/18 01:15:44;;;;;;;0.10;0.10;;;;;;;24.41;60.50;99876.03;4310774;33;20442;-96
2023/07/18 01:18:09;;;;;;;0.00;0.00;;;;;;;24.34;60.50;99877.50;4310713;33;20115;-96
2023/07/18 01:20:38;;;;;;;0.00;0.00;;;;;;;24.32;60.50;99873.31;4310753;33;20107;-96
2023/07/18 01:23:06;;;;;;;0.25;0.13;;;;;;;24.38;60.50;99865.66;4311005;33;20884;-96
2023/07/18 01:25:33;;;;;;;0.30;0.30;;;;;;;24.51;60.50;99861.91;4310783;33;20486;-96
2023/07/18 01:27:59;;;;;;;0.30;0.30;;;;;;;24.53;60.51;99865.25;4310535;33;20178;-96
2023/07/18 01:30:26;;;;;;;0.47;0.47;;;;;;;24.54;60.51;99865.13;4310610;33;20823;-96
2023/07/18 01:32:52;;;;;;;0.00;0.00;;;;;;;24.38;60.51;99854.16;4322838;33;20419;-96
2023/07/18 01:35:19;;;;;;;0.35;0.35;;;;;;;24.39;60.51;99858.50;4335033;33;20172;-96
2023/07/18 01:37:44;;;;;;;0.35;0.10;;;;;;;24.24;60.49;99859.81;4310733;33;20177;-96
2023/07/18 01:40:14;;;;;;;0.15;0.15;;;;;;;24.30;60.49;99862.81;4310700;33;20108;-96
2023/07/18 01:42:40;;;;;;;0.27;0.27;;;;;;;24.46;60.51;99859.66;4311065;33;20096;-96
2023/07/18 01:45:06;;;;;;;0.55;0.55;;;;;;;24.36;60.49;99858.75;4310663;33;20205;-96
2023/07/18 01:47:31;;;;;;;0.50;0.50;;;;;;;24.12;60.49;99864.34;4310472;33;20104;-96
2023/07/18 01:49:58;;;;;;;1.25;1.08;;;;;;;24.06;60.49;99863.06;4310836;33;20111;-96
2023/07/18 01:52:25;;;;;;;0.10;0.10;;;;;;;24.05;60.49;99869.38;4310999;33;20104;-96
2023/07/18 01:54:51;;;;;;;0.98;0.50;;;;;;;24.00;60.48;99873.41;4310800;33;20091;-96
2023/07/18 01:57:16;;;;;;;0.30;0.03;;;;;;;24.05;60.49;99871.19;4311042;33;20175;-96
2023/07/18 01:59:42;;;;;;;0.73;0.73;;;;;;;23.87;60.47;99863.81;4311842;33;20122;-96
2023/07/18 02:02:07;;;;;;;0.30;0.30;;;;;;;23.94;60.48;99864.16;4319304;33;20135;-96
2023/07/18 02:04:33;;;;;;;0.05;0.05;;;;;;;24.10;60.48;99869.81;4322570;33;20126;-96
2023/07/18 02:06:59;;;;;;;0.35;0.20;;;;;;;23.94;60.48;99887.25;4326211;33;20108;-96
2023/07/18 02:09:28;;;;;;;0.17;0.17;;;;;;;24.13;60.49;99889.97;4310997;33;20175;-96
2023/07/18 02:11:53;;;;;;;0.20;0.20;;;;;;;23.83;60.47;99888.97;4310514;33;20126;-96
2023/07/18 02:14:20;;;;;;;0.08;0.08;;;;;;;23.83;60.47;99893.44;4322607;33;20752;-96
2023/07/18 02:16:46;;;;;;;1.85;1.37;;;;;;;23.80;60.46;99894.56;4310059;33;20138;-96
2023/07/18 02:19:12;;;;;;;0.93;0.82;;;;;;;23.77;60.47;99896.63;4310126;33;20122;-96
2023/07/18 02:21:37;;;;;;;0.20;0.13;;;;;;;23.85;60.48;99904.78;4310445;33;20374;-96
2023/07/18 02:24:03;;;;;;;0.43;0.35;;;;;;;23.87;60.47;99900.19;4310308;33;20103;-96
2023/07/18 02:26:31;;;;;;;0.45;0.20;;;;;;;23.72;60.46;99902.34;4310055;33;20146;-96
2023/07/18 02:28:57;;;;;;;0.00;0.00;;;;;;;23.68;60.47;99911.56;4322377;33;20103;-96
2023/07/18 02:31:22;;;;;;;0.32;0.13;;;;;;;23.75;60.47;99918.03;4310226;33;20484;-96
2023/07/18 02:33:48;;;;;;;0.30;0.22;;;;;;;23.71;60.46;99921.06;4310232;33;20096;-96
2023/07/18 02:36:13;;;;;;;0.77;0.55;;;;;;;23.76;60.47;99924.19;4309923;33;20159;-96
2023/07/18 02:38:39;;;;;;;0.22;0.22;;;;;;;23.78;60.46;99920.44;4310070;33;20151;-96
2023/07/18 02:41:04;;;;;;;0.10;0.10;;;;;;;23.61;60.46;99920.13;4309820;33;20099;-96
2023/07/18 02:43:30;;;;;;;0.05;0.05;;;;;;;23.66;60.45;99915.28;4310169;33;20122;-96
2023/07/18 02:45:56;;;;;;;0.13;0.13;;;;;;;23.61;60.46;99926.28;4310335;33;20167;-96
2023/07/18 02:48:21;;;;;;;0.00;0.00;;;;;;;23.60;60.46;99929.09;4310116;33;20110;-96
2023/07/18 02:50:48;;;;;;;0.20;0.20;;;;;;;23.63;60.46;99928.81;4309829;33;20091;-96
2023/07/18 02:53:13;;;;;;;0.00;0.00;;;;;;;23.52;60.46;99935.84;4310088;33;20126;-96
2023/07/18 02:55:39;;;;;;;0.13;0.13;;;;;;;23.60;60.46;99937.06;4310025;33;20119;-96
2023/07/18 02:58:05;;;;;;;0.40;0.40;;;;;;;23.73;60.46;99948.37;4309863;33;20111;-96
2023/07/18 03:00:33;;;;;;;0.10;0.10;;;;;;;23.64;60.46;99949.13;4310181;33;20475;-96
2023/07/18 03:02:58;;;;;;;18.83;1.55;;;;;;;23.71;60.46;99943.19;4310151;33;20100;-96
2023/07/18 03:05:24;;;;;;;0.00;0.00;;;;;;;23.72;60.46;99946.69;4310093;33;20103;-96
2023/07/18 03:07:50;;;;;;;0.20;0.20;;;;;;;23.80;60.47;99949.53;4310140;33;20137;-96
2023/07/18 03:10:16;;;;;;;0.20;0.20;;;;;;;23.78;60.47;99949.66;4321780;33;20111;-96
2023/07/18 03:12:41;;;;;;;0.00;0.00;;;;;;;23.71;60.46;99952.97;4309907;33;20525;-96
2023/07/18 03:15:13;;;;;;;0.28;0.28;;;;;;;23.62;60.46;99948.41;4309790;33;20156;-96
2023/07/18 03:17:41;;;;;;;0.55;0.55;;;;;;;23.62;60.46;99943.09;4311914;33;20076;-96
2023/07/18 03:20:17;;;;;;;0.40;0.40;;;;;;;23.70;60.47;99944.16;4311351;33;20118;-96
2023/07/18 03:22:45;;;;;;;0.62;0.50;;;;;;;23.78;60.47;99948.81;4312698;33;20095;-96
2023/07/18 03:25:14;;;;;;;0.08;0.03;;;;;;;23.74;60.47;99932.28;4311730;33;20116;-96
2023/07/18 03:27:39;;;;;;;0.85;0.62;;;;;;;23.81;60.47;99933.44;4311961;33;20139;-96
2023/07/18 03:30:06;;;;;;;0.35;0.28;;;;;;;23.96;60.47;99939.31;4312614;33;20146;-96
2023/07/18 03:32:32;;;;;;;0.03;0.03;;;;;;;23.87;60.47;99935.59;4316584;33;20077;-96
2023/07/18 03:34:58;;;;;;;1.52;1.05;;;;;;;23.89;60.48;99925.66;4324905;33;20107;-94
2023/07/18 03:37:25;;;;;;;0.00;0.00;;;;;;;23.98;60.48;99933.84;4318591;33;20215;-96
2023/07/18 03:39:50;;;;;;;0.55;0.52;;;;;;;24.00;60.48;99943.38;4311531;33;20099;-96
2023/07/18 03:42:16;;;;;;;1.20;1.02;;;;;;;23.97;60.47;99942.81;4311413;33;20100;-96
2023/07/18 03:44:41;;;;;;;0.65;0.65;;;;;;;24.02;60.48;99936.12;4311630;33;20523;-96
2023/07/18 03:47:07;;;;;;;0.20;0.20;;;;;;;24.13;60.49;99933.41;4311443;33;20499;-96
2023/07/18 03:49:32;;;;;;;0.00;0.00;;;;;;;24.12;60.48;99930.84;4311347;33;20087;-96
2023/07/18 03:51:58;;;;;;;0.30;0.30;;;;;;;24.24;60.49;99942.28;4311261;33;20156;-96
2023/07/18 03:54:24;;;;;;;0.10;0.10;;;;;;;24.32;60.49;99947.78;4311263;33;20126;-96
2023/07/18 03:56:50;;;;;;;0.10;0.10;;;;;;;24.43;60.49;99947.72;4311296;33;20107;-96
2023/07/18 03:59:16;;;;;;;0.45;0.45;;;;;;;24.44;60.49;99949.41;4311511;33;20103;-96
2023/07/18 04:01:41;;;;;;;0.00;0.00;;;;;;;24.42;60.50;99949.56;4311236;33;20135;-96
2023/07/18 04:04:07;;;;;;;0.00;0.00;;;;;;;24.58;60.51;99943.72;4310999;33;20171;-96
2023/07/18 04:06:32;;;;;;;0.30;0.30;;;;;;;24.66;60.51;99943.06;4311125;33;20123;-96
2023/07/18 04:08:58;;;;;;;0.52;0.52;;;;;;;24.77;60.52;99938.47;4310969;33;20121;-96
2023/07/18 04:11:23;;;;;;;0.00;0.00;;;;;;;24.83;60.51;99944.22;4310836;33;20099;-96
2023/07/18 04:13:49;;;;;;;0.00;0.00;;;;;;;24.71;60.52;99944.34;4311100;33;20137;-96
2023/07/18 04:16:14;;;;;;;0.85;0.73;;;;;;;24.72;60.51;99942.53;4322971;33;20115;-96
2023/07/18 04:18:40;;;;;;;0.25;0.25;;;;;;;24.88;60.52;99950.00;4310845;33;20120;-96
2023/07/18 04:21:06;;;;;;;0.85;0.45;;;;;;;25.03;60.53;99941.53;4323334;33;20134;-96
2023/07/18 04:23:32;;;;;;;0.13;0.13;;;;;;;25.05;60.53;99952.03;4310866;33;20146;-96
2023/07/18 04:25:58;;;;;;;0.40;0.15;;;;;;;25.30;60.54;99951.53;4323009;33;20112;-96
2023/07/18 04:28:25;;;;;;;0.10;0.10;;;;;;;25.30;60.54;99951.53;4334537;33;20059;-96
2023/07/18 04:30:50;;;;;;;1.20;1.10;;;;;;;25.51;60.55;99951.41;4310533;33;20204;-96
2023/07/18 04:33:16;;;;;;;0.80;0.43;;;;;;;25.62;60.57;99953.94;4310779;33;20108;-96
2023/07/18 04:35:43;;;;;;;0.37;0.37;;;;;;;25.72;60.56;99951.31;4310765;33;20277;-96
2023/07/18 04:38:09;;;;;;;0.10;0.10;;;;;;;26.00;60.57;99942.44;4310825;33;20111;-96
2023/07/18 04:40:34;;;;;;;0.10;0.10;;;;;;;26.15;60.58;99952.66;4310973;33;20140;-96
2023/07/18 04:43:00;;;;;;;18.65;0.45;;;;;;;26.27;60.59;99946.19;4310397;33;20183;-96
2023/07/18 04:45:26;;;;;;;0.00;0.00;;;;;;;26.22;60.59;99946.59;4310791;33;20128;-96
2023/07/18 04:47:51;;;;;;;0.00;0.00;;;;;;;26.43;60.60;99957.09;4310739;33;20385;-96
2023/07/18 04:50:17;;;;;;;0.20;0.20;;;;;;;26.54;60.60;99956.94;4310606;33;20096;-96
2023/07/18 04:52:42;;;;;;;1.67;0.62;;;;;;;26.64;60.62;99964.91;4322867;33;20133;-96
2023/07/18 04:55:08;;;;;;;0.90;0.25;;;;;;;26.73;60.62;99969.34;4310875;33;20127;-96
2023/07/18 04:57:34;;;;;;;0.05;0.05;;;;;;;26.78;60.62;99967.09;4310897;33;20091;-96
2023/07/18 05:00:00;;;;;;;0.10;0.10;;;;;;;26.71;60.61;99968.66;4311616;33;20156;-96
2023/07/18 05:02:25;;;;;;;0.22;0.22;;;;;;;26.77;60.62;99975.28;4313232;33;20151;-96
2023/07/18 05:04:51;;;;;;;1.05;0.22;;;;;;;26.74;60.62;99973.75;4338105;33;20155;-96
2023/07/18 05:07:17;;;;;;;0.17;0.17;;;;;;;26.82;60.62;99973.84;4323314;33;20060;-96
2023/07/18 05:09:43;;;;;;;1.52;1.42;;;;;;;26.96;60.64;99969.81;4321226;33;20091;-96
2023/07/18 05:12:09;;;;;;;1.58;0.43;;;;;;;27.03;60.63;99976.28;4335059;33;20112;-96
2023/07/18 05:14:34;;;;;;;0.10;0.10;;;;;;;27.12;60.64;99980.72;4310539;33;20103;-96
2023/07/18 05:17:00;;;;;;;0.10;0.10;;;;;;;27.15;60.64;99983.09;4310184;33;20159;-95
2023/07/18 05:19:25;;;;;;;1.23;0.20;;;;;;;27.02;60.63;99989.81;4310271;33;20151;-96
2023/07/18 05:21:50;;;;;;;0.75;0.35;;;;;;;27.12;60.64;99987.91;4310001;33;20167;-96
2023/07/18 05:24:16;;;;;;;0.20;0.20;;;;;;;27.15;60.64;99983.09;4309610;33;27245;-95
2023/07/18 05:26:42;;;;;;;0.57;0.45;;;;;;;27.21;60.65;99987.03;4322311;33;20247;-96
2023/07/18 05:29:07;;;;;;;0.37;0.28;;;;;;;27.26;60.64;99991.91;4310347;33;20103;-96
2023/07/18 05:31:33;;;;;;;1.00;0.65;;;;;;;27.14;60.64;99994.78;4310181;33;20155;-96
2023/07/18 05:33:58;;;;;;;0.75;0.37;;;;;;;27.27;60.64;99990.94;4310366;33;20134;-96
2023/07/18 05:36:25;;;;;;;0.30;0.30;;;;;;;27.33;60.65;99990.31;4310507;33;20392;-96
2023/07/18 05:38:50;;;;;;;0.75;0.57;;;;;;;27.30;60.65;100006.66;4310393;33;20112;-96
2023/07/18 05:41:16;;;;;;;0.00;0.00;;;;;;;27.38;60.65;99998.72;4309921;33;20124;-96
2023/07/18 05:43:41;;;;;;;1.70;0.93;;;;;;;27.44;60.66;99996.28;4310219;33;20203;-96
2023/07/18 05:46:07;;;;;;;0.10;0.10;;;;;;;27.45;60.65;99991.81;4310223;33;20107;-96
2023/07/18 05:48:32;;;;;;;0.28;0.28;;;;;;;27.34;60.64;99992.00;4310073;33;20155;-96
2023/07/18 05:51:00;;;;;;;0.60;0.60;;;;;;;27.69;60.67;99986.72;4309778;33;20104;-96
2023/07/18 05:53:25;;;;;;;1.33;0.57;;;;;;;27.81;60.67;99979.28;4309886;33;20111;-95
2023/07/18 05:55:52;;;;;;;0.20;0.20;;;;;;;27.81;60.67;99987.31;4309720;33;20122;-95
2023/07/18 05:58:17;;;;;;;0.20;0.20;;;;;;;27.90;60.67;99991.72;4309864;33;20087;-96
2023/07/18 06:00:42;;;;;;;0.13;0.13;;;;;;;27.81;60.67;100004.22;4321913;33;20170;-96
2023/07/18 06:03:08;;;;;;;0.85;0.32;;;;;;;27.91;60.67;100003.28;4310014;33;20110;-96
2023/07/18 06:05:33;;;;;;;0.10;0.10;;;;;;;28.04;60.69;100004.56;4309707;33;20147;-96
2023/07/18 06:07:59;;;;;;;3.85;0.57;;;;;;;27.87;60.68;100005.41;4310320;33;20112;-96
2023/07/18 06:10:24;;;;;;;0.08;0.08;;;;;;;27.97;60.68;100011.56;4322144;33;20171;-95
2023/07/18 06:12:50;;;;;;;0.37;0.20;;;;;;;28.00;60.68;100013.06;4309786;33;20119;-96
2023/07/18 06:15:15;;;;;;;0.28;0.28;;;;;;;28.05;60.69;100000.06;4322195;33;20158;-96
2023/07/18 06:17:40;;;;;;;0.05;0.05;;;;;;;28.17;60.69;100004.19;4310170;33;20152;-95
2023/07/18 06:20:11;;;;;;;1.73;0.80;;;;;;;28.37;60.71;100003.00;4309694;33;20164;-96
2023/07/18 06:22:37;;;;;;;0.03;0.03;;;;;;;28.39;60.70;100016.22;4310357;33;20107;-96
2023/07/18 06:25:02;;;;;;;0.45;0.30;;;;;;;28.16;60.70;100013.22;4309874;33;20091;-96
2023/07/18 06:27:28;;;;;;;0.08;0.08;;;;;;;28.35;60.70;100013.03;4334074;33;20149;-96
2023/07/18 06:29:54;;;;;;;4.85;0.50;;;;;;;28.25;60.70;100014.13;4322035;33;20142;-96
2023/07/18 06:32:21;;;;;;;0.85;0.20;;;;;;;28.23;60.70;100016.94;4311073;33;20076;-95
2023/07/18 06:34:46;;;;;;;0.10;0.10;;;;;;;28.18;60.69;100008.53;4314190;33;20083;-93
2023/07/18 06:37:13;;;;;;;0.22;0.22;;;;;;;28.24;60.70;100015.94;4323838;33;20096;-96
2023/07/18 06:39:38;;;;;;;0.52;0.52;;;;;;;28.28;60.70;100005.78;4316918;33;20151;-96
2023/07/18 06:42:05;;;;;;;0.55;0.55;;;;;;;28.38;60.71;100011.88;4322082;33;20137;-96
2023/07/18 06:44:31;;;;;;;0.40;0.32;;;;;;;28.55;60.71;100018.19;4309573;33;20154;-95
2023/07/18 06:46:56;;;;;;;1.33;0.73;;;;;;;28.87;60.73;100021.09;4309287;33;20114;-95
2023/07/18 06:49:22;;;;;;;0.40;0.37;;;;;;;28.91;60.73;100025.12;4308522;33;20218;-95
2023/07/18 06:51:49;;;;;;;0.52;0.50;;;;;;;29.09;60.73;100026.87;4308426;33;20385;-94
2023/07/18 06:54:15;;;;;;;3.55;0.88;;;;;;;28.99;60.73;100027.84;4308653;33;20175;-94
2023/07/18 06:56:42;;;;;;;0.20;0.20;;;;;;;29.32;60.75;100034.16;4308641;33;20119;-94
2023/07/18 06:59:08;;;;;;;0.60;0.60;;;;;;;29.52;60.76;100025.88;4308748;33;20120;-94
2023/07/18 07:01:34;;;;;;;0.00;0.00;;;;;;;29.40;60.75;100032.53;4308497;33;20535;-93
2023/07/18 07:04:00;;;;;;;1.75;0.85;;;;;;;29.47;60.75;100030.87;4320469;33;20122;-94
2023/07/18 07:06:26;;;;;;;0.13;0.13;;;;;;;29.60;60.77;100037.47;4308390;33;20122;-92
2023/07/18 07:08:51;;;;;;;0.60;0.30;;;;;;;29.73;60.78;100031.59;4308035;33;20116;-91
2023/07/18 07:11:17;;;;;;;0.47;0.40;;;;;;;29.82;60.78;100037.84;4307401;33;30019;-92
2023/07/18 07:13:43;;;;;;;0.10;0.10;;;;;;;30.04;60.78;100042.56;4307986;33;20399;-91
2023/07/18 07:16:08;;;;;;;1.35;0.75;;;;;;;30.04;60.78;100044.41;4320065;33;20106;-90
2023/07/18 07:18:34;;;;;;;0.32;0.32;;;;;;;30.02;60.79;100049.91;4307821;33;20108;-91
2023/07/18 07:21:00;;;;;;;0.25;0.25;;;;;;;30.26;60.79;100049.12;4319981;33;20127;-90
2023/07/18 07:23:25;;;;;;;0.22;0.22;;;;;;;30.34;60.80;100059.88;4332210;33;20412;-91
2023/07/18 07:25:51;;;;;;;0.15;0.15;;;;;;;30.43;60.80;100050.78;4320042;33;20103;-90
2023/07/18 07:28:16;;;;;;;1.65;1.50;;;;;;;30.47;60.81;100045.91;4319810;33;20505;-90
2023/07/18 07:30:42;;;;;;;0.00;0.00;;;;;;;30.36;60.81;100044.44;4319870;33;20127;-90
2023/07/18 07:33:07;;;;;;;0.73;0.73;;;;;;;30.52;60.80;100038.19;4307719;33;20147;-90
2023/07/18 07:35:32;;;;;;;0.90;0.90;;;;;;;30.64;60.82;100044.09;4319688;33;20167;-90
2023/07/18 07:37:58;;;;;;;0.55;0.45;;;;;;;30.75;60.82;100046.38;4307814;33;20107;-91
2023/07/18 07:40:23;;;;;;;0.32;0.32;;;;;;;30.61;60.82;100042.56;4319938;33;20112;-90
2023/07/18 07:42:49;;;;;;;0.20;0.20;;;;;;;30.45;60.81;100050.63;4320020;33;20099;-89
2023/07/18 07:45:15;;;;;;;0.13;0.10;;;;;;;30.69;60.83;100055.97;4307666;33;20100;-89
2023/07/18 07:47:41;;;;;;;0.20;0.20;;;;;;;30.73;60.82;100056.47;4320166;33;20112;-90
2023/07/18 07:50:08;;;;;;;4.75;1.27;;;;;;;30.71;60.82;100053.97;4319784;33;20125;-90
2023/07/18 07:52:33;;;;;;;0.10;0.10;;;;;;;30.87;60.83;100049.56;4333327;33;20099;-88
2023/07/18 07:54:59;;;;;;;0.05;0.05;;;;;;;30.82;60.83;100061.69;4319758;33;20108;-89
2023/07/18 07:57:24;;;;;;;1.15;0.55;;;;;;;30.69;60.82;100061.34;4319961;33;20104;-88
2023/07/18 07:59:51;;;;;;;0.43;0.43;;;;;;;30.66;60.82;100053.66;4307559;33;20115;-88
2023/07/18 08:02:17;;;;;;;0.10;0.10;;;;;;;30.87;60.83;100052.25;4320512;33;20218;-88
2023/07/18 08:04:43;;;;;;;0.50;0.50;;;;;;;30.93;60.84;100059.62;4310857;33;20111;-89
2023/07/18 08:07:08;;;;;;;0.65;0.40;;;;;;;30.77;60.83;100052.47;4332539;33;20095;-87
2023/07/18 08:09:34;;;;;;;0.00;0.00;;;;;;;30.79;60.83;100061.19;4313260;33;20532;-89
2023/07/18 08:11:59;;;;;;;0.20;0.20;;;;;;;30.83;60.83;100065.22;4335389;33;20155;-87
2023/07/18 08:14:25;;;;;;;0.65;0.40;;;;;;;30.71;60.82;100062.03;4311112;33;20156;-88
2023/07/18 08:16:52;;;;;;;0.03;0.00;;;;;;;30.77;60.83;100068.59;4324024;33;20107;-89
2023/07/18 08:19:17;;;;;;;0.00;0.00;;;;;;;30.76;60.82;100064.22;4340328;33;20083;-88
2023/07/18 08:21:42;;;;;;;0.00;0.00;;;;;;;30.90;60.83;100062.66;4342828;33;20457;-89
2023/07/18 08:24:08;;;;;;;0.00;0.00;;;;;;;30.92;60.83;100052.56;4320979;33;26691;-88
2023/07/18 08:26:33;;;;;;;0.32;0.32;;;;;;;31.02;60.84;100055.91;4321179;33;24596;-88
2023/07/18 08:28:59;;;;;;;0.17;0.17;;;;;;;31.06;60.84;100052.69;4333651;33;20552;-88
2023/07/18 08:31:24;;;;;;;0.00;0.00;;;;;;;31.12;60.85;100043.09;4309337;33;20110;-88
2023/07/18 08:33:50;;;;;;;0.90;0.65;;;;;;;31.47;60.87;100057.94;4309318;33;20119;-87
2023/07/18 08:36:15;;;;;;;0.32;0.32;;;;;;;31.53;60.86;100045.62;4321435;33;20119;-87
2023/07/18 08:38:46;;;;;;;0.98;0.40;;;;;;;31.70;60.88;100045.31;4320652;33;31569;-87
2023/07/18 08:41:11;;;;;;;0.45;0.20;;;;;;;31.95;60.90;100048.75;4334852;33;20146;-87
2023/07/18 08:43:36;;;;;;;0.20;0.20;;;;;;;31.98;60.89;100044.84;4321676;33;20131;-87
2023/07/18 08:46:03;;;;;;;0.00;0.00;;;;;;;31.87;60.88;100047.94;4320677;33;30562;-88
2023/07/18 08:48:29;;;;;;;0.00;0.00;;;;;;;32.07;60.90;100046.44;4321823;33;20123;-87
2023/07/18 08:50:54;;;;;;;0.10;0.10;;;;;;;32.05;60.90;100049.31;4320447;33;34657;-87
2023/07/18 08:53:20;;;;;;;0.10;0.10;;;;;;;32.17;60.90;100051.56;4321318;33;20087;-88
2023/07/18 08:55:45;;;;;;;0.05;0.03;;;;;;;32.15;60.90;100049.06;4320783;33;27611;-88
2023/07/18 08:58:11;;;;;;;0.25;0.25;;;;;;;32.39;60.91;100053.44;4334791;33;20122;-88
2023/07/18 09:00:36;;;;;;;0.00;0.00;;;;;;;32.52;60.91;100044.72;4333341;33;20407;-88
2023/07/18 09:03:02;;;;;;;0.65;0.65;;;;;;;32.45;60.92;100044.63;4322630;33;29204;-88
2023/07/18 09:05:28;;;;;;;2.62;0.47;;;;;;;32.40;60.91;100038.09;4321210;33;20131;-89
2023/07/18 09:07:57;;;;;;;0.00;0.00;;;;;;;32.55;60.92;100044.37;4334785;33;20159;-89
2023/07/18 09:10:23;;;;;;;0.22;0.22;;;;;;;32.60;60.93;100036.56;4333494;33;20280;-87
2023/07/18 09:12:48;;;;;;;0.13;0.13;;;;;;;32.97;60.94;100041.06;4321052;33;20123;-86
2023/07/18 09:15:19;;;;;;;0.28;0.28;;;;;;;33.00;60.93;100039.88;4334377;33;20159;-89
2023/07/18 09:17:57;;;;;;;2.00;0.52;;;;;;;33.18;60.95;100046.53;4333661;33;20133;-89
2023/07/18 09:20:24;;;;;;;3.75;1.30;;;;;;;33.04;60.95;100030.37;4321050;33;20087;-87
2023/07/18 09:22:53;;;;;;;0.37;0.20;;;;;;;32.99;60.93;100025.53;4309180;33;20138;-88
2023/07/18 09:25:18;;;;;;;0.10;0.10;;;;;;;33.15;60.95;100029.91;4334421;33;20096;-89
2023/07/18 09:27:44;;;;;;;0.77;0.77;;;;;;;33.31;60.95;100029.66;4335263;33;22271;-90
2023/07/18 09:30:10;;;;;;;0.52;0.43;;;;;;;33.21;60.95;100024.59;4310900;33;20493;-89
2023/07/18 09:32:36;;;;;;;0.00;0.00;;;;;;;33.14;60.95;100020.97;4335419;33;20064;-89
2023/07/18 09:35:01;;;;;;;2.17;1.45;;;;;;;32.91;60.95;100018.41;4339823;33;20138;-88
2023/07/18 09:37:27;;;;;;;0.13;0.13;;;;;;;33.00;60.95;100016.44;4346218;33;20164;-89
2023/07/18 09:39:54;;;;;;;0.13;0.13;;;;;;;32.98;60.94;100021.16;4318736;33;20453;-89
2023/07/18 09:42:19;;;;;;;0.40;0.20;;;;;;;32.85;60.95;100019.13;4333884;33;20432;-91
2023/07/18 09:44:48;;;;;;;0.20;0.20;;;;;;;32.83;60.95;100021.16;4321145;33;20433;-90
2023/07/18 09:47:13;;;;;;;19.85;0.60;;;;;;;33.00;60.95;100015.59;4321338;33;20182;-89
2023/07/18 09:49:39;;;;;;;5.87;2.40;;;;;;;33.03;60.95;100016.03;4333186;33;20100;-90
2023/07/18 09:52:05;;;;;;;0.10;0.10;;;;;;;32.92;60.95;100006.59;4308312;33;22869;-90
2023/07/18 09:54:36;;;;;;;0.82;0.28;;;;;;;32.89;60.94;100006.97;4334566;33;20466;-90
2023/07/18 09:57:05;;;;;;;0.20;0.20;;;;;;;33.11;60.95;100005.16;4321138;33;20134;-90
2023/07/18 09:59:33;;;;;;;0.00;0.00;;;;;;;33.02;60.95;100000.88;4321382;33;20552;-90
2023/07/18 10:01:59;;;;;;;0.30;0.30;;;;;;;33.25;60.96;99993.50;4321118;33;20160;-89
2023/07/18 10:04:24;;;;;;;0.17;0.17;;;;;;;33.34;60.97;99994.25;4320936;33;20119;-88
2023/07/18 10:06:50;;;;;;;0.17;0.17;;;;;;;33.48;60.98;99982.56;4321042;33;20433;-90
2023/07/18 10:09:16;;;;;;;2.10;0.93;;;;;;;33.55;60.98;99980.78;4321551;33;20136;-90
2023/07/18 10:11:57;;;;;;;0.62;0.62;;;;;;;33.42;60.98;99964.47;4321430;33;20200;-90
2023/07/18 10:14:22;;;;;;;0.15;0.15;;;;;;;33.35;60.97;99968.09;4320872;33;20103;-89
2023/07/18 10:16:53;;;;;;;1.20;0.73;;;;;;;33.38;60.96;99968.56;4320814;33;20167;-90
2023/07/18 10:19:21;;;;;;;0.00;0.00;;;;;;;33.40;60.97;99966.50;4323006;33;20060;-90
2023/07/18 10:21:46;;;;;;;0.55;0.37;;;;;;;33.47;60.98;99972.81;4333003;33;20079;-90
2023/07/18 10:24:21;;;;;;;0.03;0.03;;;;;;;33.54;60.97;99962.91;4333024;33;20133;-90
2023/07/18 10:26:48;;;;;;;0.65;0.40;;;;;;;33.66;60.98;99965.09;4319783;33;20112;-90
2023/07/18 10:29:13;;;;;;;0.00;0.00;;;;;;;33.45;60.97;99966.78;4334068;33;20122;-90
2023/07/18 10:31:39;;;;;;;0.65;0.65;;;;;;;33.46;60.97;99964.91;4320808;33;20464;-90
2023/07/18 10:34:09;;;;;;;0.43;0.43;;;;;;;33.66;60.98;99962.41;4320559;33;20103;-90
2023/07/18 10:36:36;;;;;;;0.28;0.28;;;;;;;33.75;60.98;99959.38;4320832;33;20127;-88
2023/07/18 10:39:14;;;;;;;1.92;0.43;;;;;;;33.71;60.99;99952.69;4321016;33;20186;-90
2023/07/18 10:41:43;;;;;;;0.10;0.10;;;;;;;33.89;60.99;99954.97;4335105;33;20091;-89
2023/07/18 10:44:12;;;;;;;0.00;0.00;;;;;;;34.02;61.00;99941.56;4323190;33;20119;-90
2023/07/18 10:46:38;;;;;;;0.10;0.10;;;;;;;33.93;61.00;99939.19;4323813;33;20107;-91
2023/07/18 10:49:04;;;;;;;0.25;0.25;;;;;;;33.94;61.00;99940.87;4346765;33;20192;-89
2023/07/18 10:51:33;;;;;;;0.05;0.05;;;;;;;34.21;61.01;99945.44;4335241;33;20119;-91
2023/07/18 10:53:59;;;;;;;3.42;0.52;;;;;;;34.16;61.00;99943.34;4329410;33;20080;-91
2023/07/18 10:56:24;;;;;;;1.02;0.45;;;;;;;34.12;61.01;99938.53;4310103;33;20103;-90
2023/07/18 10:58:51;;;;;;;0.03;0.03;;;;;;;34.13;61.01;99942.91;4320480;33;20113;-89
2023/07/18 11:01:17;;;;;;;0.32;0.30;;;;;;;34.26;61.01;99931.31;4308833;33;20461;-91
2023/07/18 11:03:45;;;;;;;0.62;0.62;;;;;;;34.27;61.01;99933.81;4332922;33;20095;-91
2023/07/18 11:06:10;;;;;;;0.28;0.28;;;;;;;34.32;61.02;99934.09;4309488;33;20084;-91
2023/07/18 11:08:37;;;;;;;0.52;0.52;;;;;;;34.49;61.02;99923.81;4322195;33;20095;-91
2023/07/18 11:11:03;;;;;;;0.50;0.50;;;;;;;34.32;61.02;99923.28;4320154;33;20068;-89
2023/07/18 11:13:36;;;;;;;0.45;0.20;;;;;;;34.39;61.02;99921.47;4311265;33;20135;-90
2023/07/18 11:16:15;;;;;;;0.88;0.30;;;;;;;34.59;61.02;99916.19;4310411;33;20535;-91
2023/07/18 11:18:49;;;;;;;0.75;0.57;;;;;;;34.91;61.04;99911.97;4320391;33;20064;-90
2023/07/18 11:21:16;;;;;;;0.17;0.13;;;;;;;34.60;61.04;99898.09;4320416;33;20099;-90
2023/07/18 11:23:42;;;;;;;0.10;0.10;;;;;;;34.85;61.04;99912.78;4308066;33;20112;-91